Airfield :
LOGIN :

Register | Disclaimer

   EN    FR    IT 

 










Legend :    VFR   Marginal VFR   IFR   Intensive IFR   Very Intensive IFR
Visi :
Ceiling :
>= 8 km
>= 3000ft
5 to 8 km
1000 to 3000 ft
1500m to 5 km
500 to 1000 ft
800 to 1500m
200 to 500 ft
< 800m
< 200 ft
Symbols :   Thunderstorms  Fog  Heavy snow  Heavy precipitations  Wind > 20 kt
SIGMETs :     Misc.  Thunderstorms  Icing  Turbulence  Mountain Waves  Volcanic Ashes






- Airport Elevation : 231 ft
- IATA code : WTN


EGXW - RAF Waddington

CURRENT METAR :
  • 212250Z AUTO 34005KT 9999 BKN087/// BKN100/// 05/02 Q1032

EXPIRED METARs :
  • 212220Z AUTO 36004KT 9999 OVC110/// 05/01 Q1032
  • 212150Z AUTO 04003KT 9999 OVC100/// 05/01 Q1032
  • 212120Z AUTO 07003KT 9999 OVC100/// 05/01 Q1032
  • 212050Z AUTO 05004KT 9999 BKN110/// 05/01 Q1032
  • 212020Z AUTO 06006KT 9999 OVC120/// 05/01 Q1032
  • 211950Z AUTO 06007KT 9999 OVC110/// 06/01 Q1032
  • 211920Z AUTO 06008KT 9999 OVC120/// 06/00 Q1032
  • 211820Z AUTO 03009KT 9999 OVC120/// 08/00 Q1031
  • 211750Z AUTO 03008KT 9999 NCD 08/00 Q1031

Expired Forecast.



MET'MAP, your aeronautical weather chart ! - Copyright ORBIFLY December 2007 - Disclaimer

ORBIFLY MET'MAP TEAM :

Programming & Development : Alexandra Zaïnal
Original concept : Baudouin d'Aumeries
Technical & hardware support : Manuel Goepfert
Assistance : Marc-Olivier Méhu




SOURCES & CREDITS :

   NOAA